Time;durP1;ratioP1;P1;durP2;ratioP2;P2;SDS_P1;SDS_P2;PMS_P1;PMS_P2;Temp;Humidity;BMP_temperature;BMP_pressure;BME280_temperature;BME280_humidity;BME280_pressure;Samples;Min_cycle;Max_cycle;Signal;HPM_P1;HPM_P2
2021/11/29 00:00:25;;;;;;;;;;;1.50;99.90;;;;;;5056156;28;19913;-87
2021/11/29 00:02:52;;;;;;;;;;;1.40;99.90;;;;;;5056079;28;19913;-86
2021/11/29 00:05:20;;;;;;;;;;;1.40;99.90;;;;;;5049080;28;19961;-87
2021/11/29 00:07:45;;;;;;;;;;;1.30;99.90;;;;;;5049893;28;20029;-83
2021/11/29 00:10:11;;;;;;;;;;;1.30;99.90;;;;;;5051390;28;19952;-84
2021/11/29 00:12:37;;;;;;;;;;;1.30;99.90;;;;;;5045999;28;20066;-86
2021/11/29 00:15:03;;;;;;;;;;;1.30;99.90;;;;;;5042047;28;19919;-86
2021/11/29 00:17:29;;;;;;;;;;;1.30;99.90;;;;;;5043977;28;19913;-85
2021/11/29 00:19:55;;;;;;;;;;;1.30;99.90;;;;;;5038206;28;19952;-87
2021/11/29 00:22:20;;;;;;;;;;;1.20;99.90;;;;;;5037823;28;19939;-80
2021/11/29 00:24:46;;;;;;;;;;;1.20;99.90;;;;;;5052484;28;19917;-86
2021/11/29 00:27:11;;;;;;;;;;;1.20;99.90;;;;;;5055225;28;20208;-87
2021/11/29 00:29:37;;;;;;;;;;;1.20;99.90;;;;;;5049621;28;19925;-87
2021/11/29 00:32:03;;;;;;;;;;;1.20;99.90;;;;;;5049059;28;20410;-86
2021/11/29 00:34:28;;;;;;;;;;;1.20;99.90;;;;;;5036112;28;20232;-86
2021/11/29 00:36:54;;;;;;;;;;;1.20;99.90;;;;;;5050623;28;19913;-89
2021/11/29 00:39:19;;;;;;;;;;;1.10;99.90;;;;;;5047359;28;19975;-76
2021/11/29 00:41:45;;;;;;;;;;;1.20;99.90;;;;;;5050750;28;19913;-88
2021/11/29 00:44:11;;;;;;;;;;;1.20;99.90;;;;;;5033890;28;19924;-78
2021/11/29 00:46:37;;;;;;;;;;;1.20;99.90;;;;;;5052683;28;19967;-85
2021/11/29 00:49:02;;;;;;;;;;;1.20;99.90;;;;;;5046473;28;19917;-85
2021/11/29 00:51:28;;;;;;;;;;;1.20;99.90;;;;;;5047055;28;19917;-85
2021/11/29 00:53:54;;;;;;;;;;;1.10;99.90;;;;;;5051928;28;19917;-85
2021/11/29 00:56:21;;;;;;;;;;;1.10;99.90;;;;;;5045756;28;20032;-82
2021/11/29 00:58:47;;;;;;;;;;;1.10;99.90;;;;;;5034215;28;20047;-83
2021/11/29 01:01:13;;;;;;;;;;;1.20;99.90;;;;;;5023225;28;19948;-75
2021/11/29 01:03:39;;;;;;;;;;;1.20;99.90;;;;;;5024027;28;19952;-76
2021/11/29 01:06:05;;;;;;;;;;;1.30;99.90;;;;;;5047361;28;19965;-75
2021/11/29 01:08:31;;;;;;;;;;;1.30;99.90;;;;;;5052123;28;20331;-75
2021/11/29 01:10:57;;;;;;;;;;;1.30;99.90;;;;;;5050906;28;19913;-75
2021/11/29 01:13:22;;;;;;;;;;;1.30;99.90;;;;;;5048775;28;19959;-77
2021/11/29 01:15:48;;;;;;;;;;;1.30;99.90;;;;;;5034714;28;19913;-76
2021/11/29 01:18:14;;;;;;;;;;;1.20;99.90;;;;;;5042875;28;19921;-76
2021/11/29 01:20:41;;;;;;;;;;;1.20;99.90;;;;;;5030876;28;19921;-76
2021/11/29 01:23:07;;;;;;;;;;;1.20;99.90;;;;;;5028170;28;20220;-77
2021/11/29 01:25:32;;;;;;;;;;;1.20;99.90;;;;;;5031693;28;19913;-80
2021/11/29 01:27:58;;;;;;;;;;;1.20;99.90;;;;;;5029012;28;19914;-76
2021/11/29 01:30:24;;;;;;;;;;;1.20;99.90;;;;;;5034145;28;20067;-77
2021/11/29 01:32:49;;;;;;;;;;;1.20;99.90;;;;;;5037389;28;19975;-84
2021/11/29 01:35:15;;;;;;;;;;;1.20;99.90;;;;;;5035055;28;19909;-75
2021/11/29 01:37:40;;;;;;;;;;;1.10;99.90;;;;;;5036608;28;19913;-76
2021/11/29 01:40:07;;;;;;;;;;;1.10;99.90;;;;;;5033193;28;19915;-86
2021/11/29 01:42:33;;;;;;;;;;;1.00;99.90;;;;;;5034908;28;19920;-79
2021/11/29 01:44:59;;;;;;;;;;;1.00;99.90;;;;;;5032643;28;19921;-86
2021/11/29 01:47:25;;;;;;;;;;;1.00;99.90;;;;;;5029876;28;19914;-87
2021/11/29 01:49:51;;;;;;;;;;;1.10;99.90;;;;;;5036634;28;19916;-84
2021/11/29 01:52:17;;;;;;;;;;;1.10;99.90;;;;;;5031619;28;19987;-88
2021/11/29 01:54:42;;;;;;;;;;;1.10;99.90;;;;;;5037946;28;19909;-82
2021/11/29 01:57:08;;;;;;;;;;;1.00;99.90;;;;;;5033594;28;19979;-77
2021/11/29 01:59:34;;;;;;;;;;;1.10;99.90;;;;;;5032507;28;20288;-85
2021/11/29 02:02:00;;;;;;;;;;;1.10;99.90;;;;;;5037626;28;20327;-82
2021/11/29 02:04:26;;;;;;;;;;;1.10;99.90;;;;;;5030564;28;19916;-75
2021/11/29 02:06:51;;;;;;;;;;;1.10;99.90;;;;;;5038325;28;19909;-79
2021/11/29 02:09:17;;;;;;;;;;;1.10;99.90;;;;;;5031232;28;19971;-88
2021/11/29 02:11:42;;;;;;;;;;;1.10;99.90;;;;;;5034188;28;19963;-88
2021/11/29 02:14:08;;;;;;;;;;;1.00;99.90;;;;;;5038149;28;20324;-87
2021/11/29 02:16:34;;;;;;;;;;;1.00;99.90;;;;;;5034194;28;20197;-84
2021/11/29 02:19:00;;;;;;;;;;;1.00;99.90;;;;;;5048650;28;19929;-84
2021/11/29 02:21:29;;;;;;;;;;;0.90;99.90;;;;;;5040123;28;20003;-88
2021/11/29 02:24:02;;;;;;;;;;;1.00;99.90;;;;;;5048868;28;19952;-85
2021/11/29 02:26:28;;;;;;;;;;;0.90;99.90;;;;;;5065110;28;19909;-86
2021/11/29 02:28:56;;;;;;;;;;;0.90;99.90;;;;;;5058423;28;19917;-77
2021/11/29 02:31:24;;;;;;;;;;;0.90;99.90;;;;;;5056942;28;19999;-78
2021/11/29 02:33:50;;;;;;;;;;;0.90;99.90;;;;;;5057686;28;19912;-76
2021/11/29 02:36:15;;;;;;;;;;;1.00;99.90;;;;;;5039716;28;19920;-76
2021/11/29 02:38:41;;;;;;;;;;;1.00;99.90;;;;;;5057833;28;20011;-87
2021/11/29 02:41:07;;;;;;;;;;;0.90;99.90;;;;;;5039962;28;19920;-79
2021/11/29 02:43:33;;;;;;;;;;;0.90;99.90;;;;;;5055932;28;19913;-89
2021/11/29 02:45:59;;;;;;;;;;;0.80;99.90;;;;;;5057225;28;19925;-86
2021/11/29 02:48:44;;;;;;;;;;;0.70;99.90;;;;;;5057893;28;20126;-89
2021/11/29 02:51:20;;;;;;;;;;;0.60;99.90;;;;;;5036289;28;19963;-88
2021/11/29 02:53:46;;;;;;;;;;;0.60;99.90;;;;;;5058492;28;19939;-89
2021/11/29 02:56:11;;;;;;;;;;;0.60;99.90;;;;;;5056664;28;20332;-89
2021/11/29 02:58:40;;;;;;;;;;;0.70;99.90;;;;;;5032290;28;20259;-88
2021/11/29 03:01:06;;;;;;;;;;;0.70;99.90;;;;;;5057618;28;19912;-88
2021/11/29 03:03:31;;;;;;;;;;;0.70;99.90;;;;;;5039530;28;19920;-89
2021/11/29 03:05:57;;;;;;;;;;;0.80;99.90;;;;;;5040682;28;19913;-89
2021/11/29 03:08:22;;;;;;;;;;;0.90;99.90;;;;;;5050680;28;19915;-87
2021/11/29 03:10:48;;;;;;;;;;;1.00;99.90;;;;;;5056680;28;20224;-82
2021/11/29 03:13:14;;;;;;;;;;;1.10;99.90;;;;;;5037574;28;19963;-77
2021/11/29 03:15:39;;;;;;;;;;;1.20;99.90;;;;;;5036347;28;19925;-86
2021/11/29 03:18:05;;;;;;;;;;;1.20;99.90;;;;;;5053922;28;20058;-76
2021/11/29 03:20:30;;;;;;;;;;;1.30;99.90;;;;;;5037967;28;19992;-81
2021/11/29 03:22:56;;;;;;;;;;;1.30;99.90;;;;;;5057440;28;20258;-77
2021/11/29 03:25:21;;;;;;;;;;;1.50;99.90;;;;;;5060421;28;20236;-75
2021/11/29 03:27:47;;;;;;;;;;;1.60;99.90;;;;;;5056638;28;19920;-75
2021/11/29 03:30:13;;;;;;;;;;;1.60;99.90;;;;;;5054591;28;19934;-89
2021/11/29 03:32:38;;;;;;;;;;;1.60;99.90;;;;;;5056895;28;19913;-89
2021/11/29 03:35:05;;;;;;;;;;;1.50;99.90;;;;;;5038388;28;19919;-86
2021/11/29 03:37:31;;;;;;;;;;;1.40;99.90;;;;;;5045384;28;19917;-83
2021/11/29 03:39:57;;;;;;;;;;;1.30;99.90;;;;;;5039481;28;20201;-87
2021/11/29 03:42:22;;;;;;;;;;;1.30;99.90;;;;;;5038855;28;19913;-92
2021/11/29 03:44:48;;;;;;;;;;;1.30;99.90;;;;;;5047528;28;20343;-89
2021/11/29 03:47:13;;;;;;;;;;;1.30;99.90;;;;;;5046230;28;19920;-76
2021/11/29 03:49:39;;;;;;;;;;;1.30;99.90;;;;;;5048319;28;20011;-92
2021/11/29 03:52:05;;;;;;;;;;;1.30;99.90;;;;;;5057139;28;20262;-88
2021/11/29 03:54:30;;;;;;;;;;;1.30;99.90;;;;;;5056970;28;20312;-86
2021/11/29 03:56:56;;;;;;;;;;;1.30;99.90;;;;;;5029411;28;19952;-92
2021/11/29 03:59:22;;;;;;;;;;;1.30;99.90;;;;;;5056493;28;20327;-88
2021/11/29 04:01:47;;;;;;;;;;;1.40;99.90;;;;;;5047783;28;20304;-88
2021/11/29 04:04:13;;;;;;;;;;;1.40;99.90;;;;;;5054985;28;19916;-93
2021/11/29 04:06:39;;;;;;;;;;;1.40;99.90;;;;;;5056664;28;20323;-90
2021/11/29 04:09:05;;;;;;;;;;;1.50;99.90;;;;;;5056860;28;19952;-90
2021/11/29 04:11:31;;;;;;;;;;;1.40;99.90;;;;;;5055305;28;19962;-90
2021/11/29 04:13:56;;;;;;;;;;;1.40;99.90;;;;;;5038813;28;19913;-80
2021/11/29 04:16:22;;;;;;;;;;;1.40;99.90;;;;;;5050445;28;19920;-77
2021/11/29 04:18:47;;;;;;;;;;;1.40;99.90;;;;;;5055086;28;19921;-88
2021/11/29 04:21:14;;;;;;;;;;;1.50;99.90;;;;;;5056704;28;19912;-93
2021/11/29 04:23:43;;;;;;;;;;;1.60;99.90;;;;;;5040337;28;19939;-76
2021/11/29 04:26:11;;;;;;;;;;;1.70;99.90;;;;;;5040522;28;19919;-92
2021/11/29 04:28:36;;;;;;;;;;;1.60;99.90;;;;;;5053679;28;19923;-94
2021/11/29 04:31:02;;;;;;;;;;;1.60;99.90;;;;;;5032669;28;19913;-76
2021/11/29 04:33:27;;;;;;;;;;;1.60;99.90;;;;;;5037373;28;19952;-94
2021/11/29 04:35:53;;;;;;;;;;;1.60;99.90;;;;;;5043155;28;20296;-88
2021/11/29 04:38:19;;;;;;;;;;;1.60;99.90;;;;;;5054997;28;19971;-93
2021/11/29 04:40:44;;;;;;;;;;;1.60;99.90;;;;;;5056560;28;19909;-93
2021/11/29 04:43:10;;;;;;;;;;;1.60;99.90;;;;;;5038694;28;19916;-76
2021/11/29 04:45:35;;;;;;;;;;;1.60;99.90;;;;;;5047983;28;19919;-92
2021/11/29 04:48:01;;;;;;;;;;;1.70;99.90;;;;;;5056009;28;19920;-93
2021/11/29 04:50:27;;;;;;;;;;;1.80;99.90;;;;;;5032878;28;19917;-87
2021/11/29 04:52:52;;;;;;;;;;;1.80;99.90;;;;;;5051927;28;19939;-75
2021/11/29 04:55:18;;;;;;;;;;;1.90;99.90;;;;;;5046635;28;20115;-88
2021/11/29 04:57:43;;;;;;;;;;;1.80;99.90;;;;;;5052504;28;19917;-89
2021/11/29 05:00:11;;;;;;;;;;;1.80;99.90;;;;;;5052966;28;19967;-84
2021/11/29 05:02:37;;;;;;;;;;;1.80;99.90;;;;;;5036059;28;19912;-92
2021/11/29 05:05:03;;;;;;;;;;;1.70;99.90;;;;;;5037910;28;19913;-85
2021/11/29 05:07:28;;;;;;;;;;;1.70;99.90;;;;;;5054714;28;19913;-89
2021/11/29 05:09:54;;;;;;;;;;;1.70;99.90;;;;;;5055535;28;20054;-89
2021/11/29 05:12:19;;;;;;;;;;;1.70;99.90;;;;;;5045349;28;19924;-87
2021/11/29 05:14:46;;;;;;;;;;;1.60;99.90;;;;;;5036994;28;19913;-87
2021/11/29 05:17:16;;;;;;;;;;;1.60;99.90;;;;;;5054977;28;19919;-86
2021/11/29 05:19:42;;;;;;;;;;;1.50;99.90;;;;;;5037437;28;19964;-89
2021/11/29 05:22:07;;;;;;;;;;;1.40;99.90;;;;;;5037883;28;19912;-88
2021/11/29 05:24:33;;;;;;;;;;;1.30;99.90;;;;;;5057168;28;20011;-89
2021/11/29 05:26:59;;;;;;;;;;;1.40;99.90;;;;;;5038877;28;19913;-87
2021/11/29 05:29:25;;;;;;;;;;;1.40;99.90;;;;;;5055095;28;19909;-87
2021/11/29 05:31:51;;;;;;;;;;;1.60;99.90;;;;;;5054559;28;19919;-84
2021/11/29 05:34:17;;;;;;;;;;;1.90;99.90;;;;;;5055146;28;20007;-89
2021/11/29 05:36:42;;;;;;;;;;;2.10;99.90;;;;;;5036446;28;19920;-88
2021/11/29 05:39:08;;;;;;;;;;;2.40;99.90;;;;;;5036702;28;19960;-74
2021/11/29 05:41:34;;;;;;;;;;;2.50;99.90;;;;;;5050843;28;19923;-75
2021/11/29 05:43:59;;;;;;;;;;;2.40;99.90;;;;;;5035411;28;20007;-75
2021/11/29 05:46:25;;;;;;;;;;;2.30;99.90;;;;;;5036235;28;19917;-74
2021/11/29 05:48:51;;;;;;;;;;;2.30;99.90;;;;;;5047482;28;20316;-75
2021/11/29 05:51:17;;;;;;;;;;;2.30;99.90;;;;;;5051157;28;19913;-80
2021/11/29 05:53:43;;;;;;;;;;;2.30;99.90;;;;;;5034485;28;19962;-75
2021/11/29 05:56:09;;;;;;;;;;;2.30;99.90;;;;;;5050827;28;19921;-75
2021/11/29 05:58:35;;;;;;;;;;;2.30;99.90;;;;;;5035075;28;19925;-75
2021/11/29 06:01:01;;;;;;;;;;;2.30;99.90;;;;;;5034948;28;20007;-75
2021/11/29 06:03:26;;;;;;;;;;;2.30;99.90;;;;;;5036251;28;19992;-75
2021/11/29 06:05:52;;;;;;;;;;;2.50;99.90;;;;;;5052303;28;19912;-75
2021/11/29 06:08:18;;;;;;;;;;;2.70;99.90;;;;;;5048723;28;19913;-74
2021/11/29 06:10:43;;;;;;;;;;;2.70;99.90;;;;;;5033827;28;19920;-75
2021/11/29 06:13:09;;;;;;;;;;;2.70;99.90;;;;;;5051938;28;20389;-77
2021/11/29 06:15:35;;;;;;;;;;;2.80;99.90;;;;;;5053538;28;19917;-81
2021/11/29 06:18:01;;;;;;;;;;;2.90;99.90;;;;;;5032695;28;19916;-74
2021/11/29 06:20:26;;;;;;;;;;;3.00;99.90;;;;;;5053748;28;20006;-74
2021/11/29 06:22:53;;;;;;;;;;;3.00;99.90;;;;;;5053549;28;19912;-74
2021/11/29 06:25:19;;;;;;;;;;;3.00;99.90;;;;;;5055503;28;19996;-76
2021/11/29 06:27:45;;;;;;;;;;;3.00;99.90;;;;;;5034094;28;19924;-77
2021/11/29 06:30:11;;;;;;;;;;;3.10;99.90;;;;;;5050941;28;20248;-74
2021/11/29 06:32:37;;;;;;;;;;;3.10;99.90;;;;;;5050835;28;19916;-74
2021/11/29 06:35:04;;;;;;;;;;;3.20;99.90;;;;;;5052073;28;20381;-80
2021/11/29 06:37:29;;;;;;;;;;;3.20;99.90;;;;;;5036894;28;19939;-74
2021/11/29 06:39:58;;;;;;;;;;;3.30;99.90;;;;;;5053941;28;20375;-74
2021/11/29 06:42:24;;;;;;;;;;;3.40;99.90;;;;;;5050490;28;19940;-73
2021/11/29 06:44:49;;;;;;;;;;;3.50;99.90;;;;;;5054681;28;20394;-75
2021/11/29 06:47:15;;;;;;;;;;;3.40;99.90;;;;;;5042412;28;20232;-74
2021/11/29 06:49:40;;;;;;;;;;;3.40;99.90;;;;;;5054758;28;19913;-74
2021/11/29 06:52:06;;;;;;;;;;;3.30;99.90;;;;;;5053294;28;19913;-74
2021/11/29 06:54:35;;;;;;;;;;;3.20;99.90;;;;;;5035508;28;19920;-73
2021/11/29 06:57:01;;;;;;;;;;;3.20;99.90;;;;;;5046293;28;19919;-74
2021/11/29 06:59:28;;;;;;;;;;;3.20;99.90;;;;;;5031295;28;20306;-74
2021/11/29 07:01:54;;;;;;;;;;;3.30;99.90;;;;;;5052342;28;19913;-74
2021/11/29 07:04:20;;;;;;;;;;;3.40;99.90;;;;;;5051670;28;20034;-74
2021/11/29 07:06:46;;;;;;;;;;;3.40;99.90;;;;;;5053501;28;19921;-73
2021/11/29 07:09:12;;;;;;;;;;;3.40;99.90;;;;;;5052706;28;19937;-75
2021/11/29 07:11:37;;;;;;;;;;;3.30;99.90;;;;;;5052193;28;19913;-75
2021/11/29 07:14:03;;;;;;;;;;;3.20;99.90;;;;;;5053544;28;20000;-74
2021/11/29 07:16:29;;;;;;;;;;;3.20;99.90;;;;;;5035323;28;20062;-73
2021/11/29 07:18:55;;;;;;;;;;;3.20;99.90;;;;;;5035710;28;20378;-74
2021/11/29 07:21:20;;;;;;;;;;;3.20;99.90;;;;;;5053826;28;20007;-73
2021/11/29 07:23:46;;;;;;;;;;;3.20;99.90;;;;;;5054568;28;19971;-73
2021/11/29 07:26:11;;;;;;;;;;;3.20;99.90;;;;;;5053986;28;20328;-75
2021/11/29 07:28:37;;;;;;;;;;;3.20;99.90;;;;;;5051830;28;20007;-74
2021/11/29 07:31:03;;;;;;;;;;;3.20;99.90;;;;;;5052989;28;19925;-75
2021/11/29 07:33:28;;;;;;;;;;;3.20;99.90;;;;;;5052670;28;19925;-74
2021/11/29 07:35:54;;;;;;;;;;;3.20;99.90;;;;;;5054241;28;20652;-79
2021/11/29 07:38:20;;;;;;;;;;;3.10;99.90;;;;;;5052189;28;19924;-73
2021/11/29 07:40:46;;;;;;;;;;;3.10;99.90;;;;;;5036118;28;19964;-74
2021/11/29 07:43:11;;;;;;;;;;;3.10;99.90;;;;;;5053069;28;19916;-73
2021/11/29 07:45:38;;;;;;;;;;;3.20;99.90;;;;;;5034845;28;19916;-73
2021/11/29 07:48:04;;;;;;;;;;;3.20;99.90;;;;;;5051576;28;19913;-74
2021/11/29 07:50:30;;;;;;;;;;;3.20;99.90;;;;;;5050574;28;20293;-81
2021/11/29 07:52:56;;;;;;;;;;;3.20;99.90;;;;;;5050688;28;19917;-73
2021/11/29 07:55:24;;;;;;;;;;;3.20;99.90;;;;;;5035779;28;19913;-74
2021/11/29 07:57:50;;;;;;;;;;;3.30;99.90;;;;;;5052332;28;19951;-74
2021/11/29 08:00:19;;;;;;;;;;;3.40;99.90;;;;;;5036237;28;19912;-74
2021/11/29 08:02:45;;;;;;;;;;;3.40;99.90;;;;;;5050084;28;19935;-73
2021/11/29 08:05:11;;;;;;;;;;;3.40;99.90;;;;;;5051046;28;20008;-74
2021/11/29 08:07:36;;;;;;;;;;;3.30;99.90;;;;;;5035604;28;20015;-73
2021/11/29 08:10:02;;;;;;;;;;;3.30;99.90;;;;;;5051992;28;19921;-75
2021/11/29 08:12:28;;;;;;;;;;;3.30;99.90;;;;;;5048857;28;20000;-73
2021/11/29 08:14:54;;;;;;;;;;;3.30;99.90;;;;;;5046122;28;19913;-74
2021/11/29 08:17:20;;;;;;;;;;;3.40;99.90;;;;;;5029104;28;20059;-74
2021/11/29 08:19:46;;;;;;;;;;;3.40;99.90;;;;;;5026274;28;19921;-88
2021/11/29 08:22:13;;;;;;;;;;;3.50;99.90;;;;;;5053634;28;19919;-74
2021/11/29 08:24:39;;;;;;;;;;;3.40;99.90;;;;;;5056375;28;19913;-74
2021/11/29 08:27:05;;;;;;;;;;;3.40;99.90;;;;;;5053649;28;19978;-75
2021/11/29 08:29:30;;;;;;;;;;;3.40;99.90;;;;;;5052431;28;19920;-88
2021/11/29 08:31:56;;;;;;;;;;;3.50;99.90;;;;;;5051162;28;19913;-74
2021/11/29 08:34:21;;;;;;;;;;;3.50;99.90;;;;;;5051537;28;19913;-75
2021/11/29 08:36:47;;;;;;;;;;;3.50;99.90;;;;;;5050917;28;19938;-76
2021/11/29 08:39:12;;;;;;;;;;;3.50;99.90;;;;;;5053940;28;20289;-74
2021/11/29 08:41:38;;;;;;;;;;;3.50;99.90;;;;;;5035717;28;20010;-76
2021/11/29 08:44:04;;;;;;;;;;;3.60;99.90;;;;;;5035809;28;19913;-74
2021/11/29 08:46:30;;;;;;;;;;;3.70;99.90;;;;;;5045899;28;19921;-76
2021/11/29 08:48:56;;;;;;;;;;;3.80;99.90;;;;;;5049226;28;19913;-75
2021/11/29 08:51:22;;;;;;;;;;;3.80;99.90;;;;;;5053409;28;19927;-75
2021/11/29 08:53:47;;;;;;;;;;;3.80;99.90;;;;;;5052861;28;20289;-74
2021/11/29 08:56:14;;;;;;;;;;;3.70;99.90;;;;;;5053030;28;20312;-74
2021/11/29 08:58:40;;;;;;;;;;;3.60;99.90;;;;;;5050990;28;19945;-75
2021/11/29 09:01:05;;;;;;;;;;;3.60;99.90;;;;;;5051506;28;19916;-75
2021/11/29 09:03:31;;;;;;;;;;;3.60;99.90;;;;;;5034550;28;19913;-78
2021/11/29 09:05:57;;;;;;;;;;;3.70;99.90;;;;;;5051235;28;20312;-79
2021/11/29 09:08:24;;;;;;;;;;;3.80;99.90;;;;;;5050624;28;19924;-75
2021/11/29 09:10:50;;;;;;;;;;;3.80;99.90;;;;;;5048622;28;20011;-75
2021/11/29 09:13:16;;;;;;;;;;;3.90;99.90;;;;;;5052427;28;19912;-74
2021/11/29 09:15:42;;;;;;;;;;;4.00;99.90;;;;;;5050923;28;19955;-89
2021/11/29 09:18:08;;;;;;;;;;;4.10;99.90;;;;;;5022055;28;20015;-74
2021/11/29 09:20:34;;;;;;;;;;;4.20;99.90;;;;;;5040095;28;20373;-74
2021/11/29 09:23:02;;;;;;;;;;;4.20;99.90;;;;;;5052602;28;19921;-75
2021/11/29 09:25:27;;;;;;;;;;;4.30;99.90;;;;;;5053532;28;19995;-74
2021/11/29 09:27:56;;;;;;;;;;;4.30;99.90;;;;;;5052735;28;20011;-74
2021/11/29 09:30:21;;;;;;;;;;;4.30;99.90;;;;;;5051960;28;19913;-74
2021/11/29 09:32:47;;;;;;;;;;;4.40;99.90;;;;;;5034768;28;19913;-74
2021/11/29 09:35:14;;;;;;;;;;;4.40;99.90;;;;;;5049647;28;19912;-74
2021/11/29 09:37:40;;;;;;;;;;;4.50;99.90;;;;;;5033188;28;20301;-75
2021/11/29 09:40:08;;;;;;;;;;;4.50;99.90;;;;;;5034890;28;19917;-74
2021/11/29 09:42:35;;;;;;;;;;;4.60;99.90;;;;;;5050635;28;19950;-75
2021/11/29 09:45:01;;;;;;;;;;;4.60;99.90;;;;;;5052782;28;20003;-74
2021/11/29 09:47:27;;;;;;;;;;;4.70;99.90;;;;;;5051348;28;20019;-76
2021/11/29 09:49:55;;;;;;;;;;;4.70;99.90;;;;;;5033813;28;19960;-75
2021/11/29 09:52:22;;;;;;;;;;;4.80;99.90;;;;;;5048980;28;19920;-74
2021/11/29 09:54:48;;;;;;;;;;;4.80;99.90;;;;;;5050255;28;19958;-74
2021/11/29 09:57:13;;;;;;;;;;;4.90;99.90;;;;;;5049971;28;20300;-75
2021/11/29 09:59:39;;;;;;;;;;;4.90;99.90;;;;;;5050978;28;19927;-76
2021/11/29 10:02:08;;;;;;;;;;;5.00;99.90;;;;;;5052377;28;20009;-75
2021/11/29 10:04:34;;;;;;;;;;;5.10;99.90;;;;;;5035670;28;19917;-78
2021/11/29 10:07:02;;;;;;;;;;;5.10;99.90;;;;;;5032192;28;19924;-75
2021/11/29 10:09:36;;;;;;;;;;;5.20;99.90;;;;;;5035127;28;19924;-75
2021/11/29 10:12:24;;;;;;;;;;;5.30;99.90;;;;;;5053352;28;19919;-75
2021/11/29 10:15:09;;;;;;;;;;;5.40;99.90;;;;;;5044565;28;19916;-74
2021/11/29 10:17:34;;;;;;;;;;;5.50;99.90;;;;;;5038040;28;20510;-76
2021/11/29 10:20:00;;;;;;;;;;;5.60;99.90;;;;;;5036796;28;19925;-81
2021/11/29 10:22:26;;;;;;;;;;;5.60;99.90;;;;;;5027956;28;20076;-75
2021/11/29 10:24:52;;;;;;;;;;;5.50;99.90;;;;;;5054610;28;19913;-82
2021/11/29 10:27:19;;;;;;;;;;;5.40;99.90;;;;;;5036873;28;20228;-84
2021/11/29 10:29:49;;;;;;;;;;;5.30;99.90;;;;;;5055290;28;19917;-76
2021/11/29 10:32:29;;;;;;;;;;;5.40;99.90;;;;;;5027740;28;19920;-75
2021/11/29 10:34:55;;;;;;;;;;;5.50;99.90;;;;;;5035349;28;19913;-78
2021/11/29 10:37:25;;;;;;;;;;;5.60;99.90;;;;;;5050298;28;19985;-75
2021/11/29 10:39:52;;;;;;;;;;;5.60;99.90;;;;;;5049096;28;20368;-75
2021/11/29 10:42:17;;;;;;;;;;;5.70;99.90;;;;;;5049043;28;19928;-75
2021/11/29 10:44:44;;;;;;;;;;;5.70;99.90;;;;;;5035043;28;20297;-86
2021/11/29 10:47:16;;;;;;;;;;;5.70;99.90;;;;;;5036018;28;19976;-75
2021/11/29 10:49:44;;;;;;;;;;;5.80;99.90;;;;;;5049828;28;20319;-76
2021/11/29 10:52:10;;;;;;;;;;;5.80;99.90;;;;;;5052682;28;19928;-80
2021/11/29 10:54:37;;;;;;;;;;;5.80;99.90;;;;;;5052153;28;20312;-76
2021/11/29 10:57:04;;;;;;;;;;;5.90;99.90;;;;;;5053942;28;19920;-84
2021/11/29 10:59:31;;;;;;;;;;;6.00;99.90;;;;;;5052235;28;20027;-75
2021/11/29 11:01:58;;;;;;;;;;;6.10;99.90;;;;;;5049273;28;19947;-78
2021/11/29 11:04:28;;;;;;;;;;;6.10;99.90;;;;;;5050836;28;19913;-75
2021/11/29 11:06:56;;;;;;;;;;;6.10;99.90;;;;;;5048551;28;20204;-85
2021/11/29 11:09:39;;;;;;;;;;;6.10;99.90;;;;;;5051314;28;20023;-75
2021/11/29 11:12:10;;;;;;;;;;;6.00;99.90;;;;;;5050080;28;19916;-75
2021/11/29 11:14:39;;;;;;;;;;;6.00;99.90;;;;;;5035849;28;20224;-75
2021/11/29 11:17:09;;;;;;;;;;;5.90;99.90;;;;;;5053581;28;19970;-81
2021/11/29 11:19:44;;;;;;;;;;;6.00;99.90;;;;;;5052815;28;19960;-76
2021/11/29 11:22:15;;;;;;;;;;;6.00;99.90;;;;;;5052680;28;20206;-75
2021/11/29 11:24:42;;;;;;;;;;;6.00;99.90;;;;;;5052563;28;19913;-75
2021/11/29 11:27:08;;;;;;;;;;;6.00;99.90;;;;;;5052814;28;20343;-79
2021/11/29 11:29:52;;;;;;;;;;;6.00;99.90;;;;;;5051897;28;19920;-75
2021/11/29 11:32:17;;;;;;;;;;;5.90;99.90;;;;;;5026207;28;19956;-75
2021/11/29 11:34:45;;;;;;;;;;;5.80;99.90;;;;;;5041189;28;19964;-74
2021/11/29 11:37:11;;;;;;;;;;;5.60;99.90;;;;;;5053284;28;19916;-76
2021/11/29 11:39:38;;;;;;;;;;;5.60;99.90;;;;;;5035264;28;19924;-75
2021/11/29 11:42:03;;;;;;;;;;;5.70;99.90;;;;;;5054546;28;19919;-75
2021/11/29 11:44:31;;;;;;;;;;;5.90;99.90;;;;;;5035939;28;20385;-75
2021/11/29 11:46:58;;;;;;;;;;;6.10;99.90;;;;;;5051843;28;20197;-75
2021/11/29 11:49:24;;;;;;;;;;;6.20;99.90;;;;;;5052695;28;19912;-75
2021/11/29 11:51:50;;;;;;;;;;;6.30;99.90;;;;;;5053536;28;19927;-75
2021/11/29 11:54:16;;;;;;;;;;;6.30;99.90;;;;;;5052937;28;20007;-74
2021/11/29 11:56:41;;;;;;;;;;;6.30;99.90;;;;;;5050555;28;20015;-75
2021/11/29 11:59:13;;;;;;;;;;;6.40;99.90;;;;;;5052778;28;19994;-75
2021/11/29 12:01:42;;;;;;;;;;;6.40;99.90;;;;;;5051928;28;19917;-80
2021/11/29 12:04:12;;;;;;;;;;;6.50;99.90;;;;;;5037094;28;19923;-74
2021/11/29 12:06:40;;;;;;;;;;;6.40;99.90;;;;;;5028802;28;19912;-74
2021/11/29 12:09:08;;;;;;;;;;;6.50;99.90;;;;;;5038512;28;19920;-75
2021/11/29 12:11:36;;;;;;;;;;;6.50;99.90;;;;;;5047602;28;19920;-75
2021/11/29 12:14:02;;;;;;;;;;;6.60;99.90;;;;;;5034758;28;19947;-75
2021/11/29 12:16:41;;;;;;;;;;;6.70;99.90;;;;;;5047563;28;20217;-75
2021/11/29 12:19:13;;;;;;;;;;;6.80;99.90;;;;;;5048172;28;20365;-76
2021/11/29 12:21:40;;;;;;;;;;;6.80;99.90;;;;;;5039952;28;20142;-75
2021/11/29 12:24:12;;;;;;;;;;;6.70;99.90;;;;;;5048777;28;19916;-75
2021/11/29 12:26:47;;;;;;;;;;;6.60;99.90;;;;;;5046774;28;19921;-75
2021/11/29 12:29:22;;;;;;;;;;;6.50;99.90;;;;;;5048871;28;20321;-79
2021/11/29 12:31:54;;;;;;;;;;;6.50;99.90;;;;;;5049939;28;20784;-75
2021/11/29 12:34:38;;;;;;;;;;;6.60;99.90;;;;;;5036637;28;20944;-74
2021/11/29 12:37:04;;;;;;;;;;;6.70;99.90;;;;;;5038107;28;19916;-75
2021/11/29 12:39:42;;;;;;;;;;;6.70;99.90;;;;;;5050839;28;19928;-75
2021/11/29 12:42:20;;;;;;;;;;;6.70;99.90;;;;;;5052575;28;20344;-75
2021/11/29 12:44:47;;;;;;;;;;;6.70;99.90;;;;;;5035058;28;20335;-75
2021/11/29 12:47:16;;;;;;;;;;;6.80;99.90;;;;;;5052819;28;19958;-75
2021/11/29 12:49:43;;;;;;;;;;;6.80;99.90;;;;;;5052087;28;19913;-75
2021/11/29 12:52:28;;;;;;;;;;;6.70;99.90;;;;;;5052415;28;20361;-75
2021/11/29 12:54:55;;;;;;;;;;;6.50;99.90;;;;;;5047546;28;19963;-75
2021/11/29 12:57:23;;;;;;;;;;;6.30;99.90;;;;;;5051682;28;19924;-75
2021/11/29 12:59:53;;;;;;;;;;;6.20;99.90;;;;;;5034501;28;20552;-75
2021/11/29 13:02:37;;;;;;;;;;;6.00;99.90;;;;;;5052683;28;20303;-75
2021/11/29 13:05:23;;;;;;;;;;;5.90;99.90;;;;;;5034783;28;19923;-74
2021/11/29 13:08:07;;;;;;;;;;;5.70;99.90;;;;;;5051737;28;19920;-75
2021/11/29 13:10:51;;;;;;;;;;;5.70;99.90;;;;;;5033557;28;19913;-75
2021/11/29 13:13:26;;;;;;;;;;;5.70;99.90;;;;;;5051286;28;20247;-74
2021/11/29 13:15:53;;;;;;;;;;;5.80;99.90;;;;;;5027521;28;20018;-74
2021/11/29 13:18:38;;;;;;;;;;;5.90;99.90;;;;;;5043674;28;19925;-74
2021/11/29 13:21:04;;;;;;;;;;;6.00;99.90;;;;;;5048346;28;19913;-74
2021/11/29 13:23:29;;;;;;;;;;;6.00;99.90;;;;;;5049530;28;20744;-76
2021/11/29 13:26:04;;;;;;;;;;;6.00;99.90;;;;;;5049775;28;19948;-74
2021/11/29 13:28:30;;;;;;;;;;;6.00;99.90;;;;;;5034948;28;20345;-74
2021/11/29 13:30:56;;;;;;;;;;;6.00;99.90;;;;;;5053293;28;20008;-74
2021/11/29 13:33:21;;;;;;;;;;;6.10;99.90;;;;;;5053153;28;20219;-75
2021/11/29 13:35:47;;;;;;;;;;;6.30;99.90;;;;;;5034966;28;19952;-74
2021/11/29 13:38:13;;;;;;;;;;;6.40;99.90;;;;;;5042233;28;19999;-75
2021/11/29 13:40:39;;;;;;;;;;;6.50;99.90;;;;;;5021211;28;19920;-75
2021/11/29 13:43:04;;;;;;;;;;;6.50;99.90;;;;;;5050021;28;20388;-75
2021/11/29 13:45:32;;;;;;;;;;;6.50;99.90;;;;;;5056884;28;19944;-74
2021/11/29 13:48:04;;;;;;;;;;;6.40;99.90;;;;;;5037547;28;19920;-75
2021/11/29 13:50:31;;;;;;;;;;;6.40;99.90;;;;;;5055156;28;20327;-75
2021/11/29 13:52:59;;;;;;;;;;;6.30;99.90;;;;;;5054938;28;19920;-74
2021/11/29 13:55:25;;;;;;;;;;;6.40;99.90;;;;;;5055508;28;20024;-74
2021/11/29 13:58:04;;;;;;;;;;;6.50;99.90;;;;;;5054447;28;19928;-75
2021/11/29 14:00:31;;;;;;;;;;;6.50;99.90;;;;;;5039049;28;19932;-74
2021/11/29 14:03:02;;;;;;;;;;;6.60;99.90;;;;;;5037661;28;20193;-74
2021/11/29 14:05:28;;;;;;;;;;;6.70;99.90;;;;;;5038520;28;19913;-74
2021/11/29 14:08:05;;;;;;;;;;;6.70;99.90;;;;;;5038352;28;20312;-75
2021/11/29 14:10:31;;;;;;;;;;;6.60;99.90;;;;;;5055252;28;19920;-74
2021/11/29 14:12:56;;;;;;;;;;;6.50;99.90;;;;;;5055341;28;19917;-74
2021/11/29 14:15:22;;;;;;;;;;;6.50;99.90;;;;;;5038863;28;20193;-74
2021/11/29 14:17:50;;;;;;;;;;;6.40;99.90;;;;;;5056429;28;19932;-75
2021/11/29 14:20:16;;;;;;;;;;;6.30;99.90;;;;;;5038807;28;20224;-74
2021/11/29 14:22:51;;;;;;;;;;;6.20;99.90;;;;;;5056285;28;19912;-74
2021/11/29 14:25:17;;;;;;;;;;;6.10;99.90;;;;;;5053235;28;19921;-75
2021/11/29 14:27:43;;;;;;;;;;;6.10;99.90;;;;;;5056314;28;20219;-75
2021/11/29 14:30:09;;;;;;;;;;;6.00;99.90;;;;;;5052506;28;19913;-74